Terminal Aerodrome Forecast
Issued by NWS Houston/Galveston TX

Home | Current Version | Previous Version | Text Only | Print | Product List | Glossary On
Versions: 1 2 3 4 5 6 7 8 9 10 11 12 13 14 15 16 17 18 19 20 21 22 23 24 25 26
000
FTUS44 KHGX 200521
TAFHOU
TAF
KHOU 200521Z 2006/2106 18004KT P6SM FEW250
     FM200900 24003KT P6SM FEW015
     FM201600 21004KT P6SM FEW025 SCT035
     FM202000 13009KT P6SM VCTS SCT050CB BKN250
      TEMPO 2021/2101 VRB10G25KT TSRA
     FM210300 16005KT P6SM SCT050 BKN250=

USA.gov is the U.S. government's official web portal to all federal, state and local government web resources and services.